Time;durP1;ratioP1;P1;durP2;ratioP2;P2;SDS_P1;SDS_P2;PMS_P1;PMS_P2;Temp;Humidity;BMP_temperature;BMP_pressure;BME280_temperature;BME280_humidity;BME280_pressure;Samples;Min_cycle;Max_cycle;Signal;HPM_P1;HPM_P2
2021/12/04 00:02:04;;;;;;;6.33;5.60;;;3.80;1.00;4.90;99294.00;;;;5058057;28;20464;-79
2021/12/04 00:04:35;;;;;;;7.60;6.33;;;3.80;1.00;4.90;99304.00;;;;5046292;28;20521;-79
2021/12/04 00:07:07;;;;;;;7.20;6.20;;;3.80;1.00;5.00;99276.00;;;;5039165;28;20437;-80
2021/12/04 00:09:37;;;;;;;6.87;6.00;;;3.80;1.00;5.10;99306.00;;;;5038162;28;20460;-79
2021/12/04 00:12:08;;;;;;;7.40;6.40;;;3.80;1.00;5.00;99314.00;;;;5036554;28;20898;-79
2021/12/04 00:14:38;;;;;;;7.90;6.20;;;3.80;1.00;5.00;99295.00;;;;5033662;28;20457;-80
2021/12/04 00:17:09;;;;;;;6.97;6.27;;;3.80;1.00;4.90;99273.00;;;;5038975;28;20444;-80
2021/12/04 00:19:39;;;;;;;7.80;6.60;;;3.80;1.00;5.00;99201.00;;;;5042361;28;20472;-80
2021/12/04 00:22:09;;;;;;;7.70;6.90;;;3.80;1.00;5.00;99283.00;;;;5059841;28;20539;-80
2021/12/04 00:24:37;;;;;;;7.27;6.37;;;3.80;1.00;5.00;99278.00;;;;5055510;28;20457;-80
2021/12/04 00:27:06;;;;;;;8.53;7.00;;;3.80;1.00;5.00;99193.00;;;;5037693;28;21314;-80
2021/12/04 00:29:35;;;;;;;8.27;6.60;;;3.80;1.00;5.10;99262.00;;;;5051478;28;20468;-78
2021/12/04 00:32:10;;;;;;;7.40;6.70;;;3.80;1.00;5.10;99232.00;;;;5051219;28;20479;-80
2021/12/04 00:34:44;;;;;;;7.00;6.40;;;3.80;1.00;5.10;99255.00;;;;5054921;28;20468;-80
2021/12/04 00:37:36;;;;;;;6.67;5.97;;;3.90;1.00;5.10;99238.00;;;;5046071;28;20548;-80
2021/12/04 00:51:26;;;;;;;6.70;5.07;;;4.00;1.00;5.40;99192.00;;;;5059116;28;20466;-78
2021/12/04 00:53:54;;;;;;;7.60;6.23;;;4.00;1.00;5.40;99212.00;;;;5058480;28;20447;-78
2021/12/04 00:56:23;;;;;;;6.83;5.90;;;4.10;1.00;5.50;99202.00;;;;5055384;28;20466;-78
2021/12/04 00:58:52;;;;;;;7.30;5.87;;;4.10;1.00;5.40;99220.00;;;;5032712;28;20460;-79
2021/12/04 01:01:21;;;;;;;8.80;5.90;;;4.10;1.00;5.30;99207.00;;;;5056326;28;20470;-79
2021/12/04 01:03:50;;;;;;;6.40;5.80;;;4.10;1.00;5.40;99200.00;;;;5061632;28;20449;-81
2021/12/04 01:06:19;;;;;;;8.37;5.70;;;4.10;1.00;5.40;99191.00;;;;5057551;28;20445;-79
2021/12/04 01:08:49;;;;;;;8.50;5.73;;;4.10;1.00;5.40;99166.00;;;;5054800;28;21060;-79
2021/12/04 01:11:18;;;;;;;6.33;5.50;;;4.10;1.00;5.40;99208.00;;;;5048187;23;20501;-80
2021/12/04 01:13:46;;;;;;;5.80;5.10;;;4.10;1.00;5.40;99167.00;;;;5007400;28;20471;-80
2021/12/04 01:16:15;;;;;;;8.07;5.20;;;4.10;1.00;5.40;99180.00;;;;5018542;28;20477;-79
2021/12/04 01:18:44;;;;;;;6.93;5.50;;;4.10;1.00;5.40;99186.00;;;;5003245;28;20472;-81
2021/12/04 01:21:13;;;;;;;7.93;5.47;;;4.10;1.00;5.30;99153.00;;;;5016225;28;20478;-79
2021/12/04 01:23:41;;;;;;;5.93;5.30;;;4.10;1.00;5.10;99179.00;;;;4999632;28;20490;-83
2021/12/04 01:26:11;;;;;;;5.93;5.27;;;4.20;1.00;5.10;99116.00;;;;4999066;28;20489;-80
2021/12/04 01:28:40;;;;;;;5.50;4.90;;;4.00;1.00;5.10;99188.00;;;;5017592;28;20439;-79
2021/12/04 01:31:08;;;;;;;6.80;4.87;;;3.90;1.00;5.00;99192.00;;;;5007580;28;20490;-80
2021/12/04 01:33:37;;;;;;;8.50;5.93;;;3.90;1.00;5.00;99142.00;;;;5003684;28;20454;-78
2021/12/04 01:36:05;;;;;;;6.87;5.43;;;3.80;1.00;4.90;99187.00;;;;5007721;28;20446;-79
2021/12/04 01:38:34;;;;;;;5.97;5.37;;;3.70;1.00;5.00;99192.00;;;;5014995;28;21020;-78
2021/12/04 01:41:02;;;;;;;11.20;5.80;;;3.70;1.00;4.90;99149.00;;;;5017288;28;20513;-80
2021/12/04 01:43:32;;;;;;;12.03;5.70;;;3.60;1.00;4.80;99178.00;;;;5018273;28;20943;-79
2021/12/04 01:46:01;;;;;;;7.80;7.00;;;3.60;1.00;4.60;99165.00;;;;5005715;28;20513;-76
2021/12/04 01:48:29;;;;;;;8.33;7.10;;;3.40;1.00;4.50;99179.00;;;;4993304;28;21051;-76
2021/12/04 01:50:58;;;;;;;7.57;6.60;;;3.30;1.00;4.40;99108.00;;;;4991970;28;20474;-76
2021/12/04 01:53:27;;;;;;;8.27;7.10;;;3.10;1.00;4.50;99169.00;;;;5011792;28;20444;-76
2021/12/04 01:55:59;;;;;;;8.40;6.50;;;3.00;1.00;4.40;99112.00;;;;4994941;28;20451;-79
2021/12/04 01:58:30;;;;;;;9.17;7.90;;;2.90;1.00;4.20;99140.00;;;;5004518;28;20451;-76
2021/12/04 02:01:00;;;;;;;12.10;7.83;;;2.80;1.00;4.10;99157.00;;;;5006270;28;21040;-76
2021/12/04 02:03:29;;;;;;;10.83;7.97;;;2.60;1.00;4.00;99133.00;;;;4991308;28;20459;-77
2021/12/04 02:05:57;;;;;;;9.50;8.10;;;2.60;1.00;4.20;99157.00;;;;4983931;28;20879;-76
2021/12/04 02:08:25;;;;;;;9.43;8.23;;;2.50;1.00;4.40;99093.00;;;;4992230;28;20981;-80
2021/12/04 02:10:59;;;;;;;9.07;8.20;;;2.60;1.00;4.50;99161.00;;;;5008452;28;20554;-78
2021/12/04 02:13:28;;;;;;;11.00;8.00;;;2.60;1.00;4.60;99113.00;;;;4991851;28;20438;-77
2021/12/04 02:16:01;;;;;;;10.13;8.20;;;2.70;1.00;4.50;99142.00;;;;5007418;28;20443;-77
2021/12/04 02:18:32;;;;;;;11.33;8.80;;;2.70;1.00;4.40;99136.00;;;;5007990;28;20848;-77
2021/12/04 02:21:01;;;;;;;12.90;8.50;;;2.70;1.00;4.40;99130.00;;;;4990956;28;20489;-76
2021/12/04 02:23:30;;;;;;;9.13;7.83;;;2.70;1.00;4.40;99122.00;;;;4989041;28;20450;-76
2021/12/04 02:25:58;;;;;;;9.03;7.63;;;2.70;1.00;4.40;99123.00;;;;4984825;28;20820;-77
2021/12/04 02:28:27;;;;;;;11.93;8.90;;;2.80;1.00;4.40;99103.00;;;;4995100;28;20454;-77
2021/12/04 02:30:56;;;;;;;10.00;8.03;;;2.90;1.00;4.20;99124.00;;;;4994655;28;20475;-75
2021/12/04 02:33:24;;;;;;;11.10;7.93;;;2.80;1.00;4.30;99115.00;;;;5007071;28;20841;-77
2021/12/04 02:35:55;;;;;;;12.10;8.87;;;2.80;1.00;4.30;99078.00;;;;4994397;28;20459;-77
2021/12/04 02:38:26;;;;;;;11.03;8.47;;;2.80;1.00;4.30;99103.00;;;;5020284;28;20486;-76
2021/12/04 02:41:00;;;;;;;10.43;8.97;;;2.80;1.00;4.30;99082.00;;;;5002243;28;20470;-76
2021/12/04 02:43:34;;;;;;;10.10;8.70;;;2.90;1.00;4.30;99080.00;;;;5010944;28;20474;-77
2021/12/04 02:46:03;;;;;;;10.70;9.60;;;2.70;1.00;4.20;99086.00;;;;5011749;28;20977;-77
2021/12/04 02:48:31;;;;;;;11.67;9.93;;;2.70;1.00;4.20;99081.00;;;;4995012;28;20952;-76
2021/12/04 02:51:00;;;;;;;13.40;9.03;;;2.60;1.00;4.20;99054.00;;;;4996438;28;20474;-76
2021/12/04 02:53:30;;;;;;;10.20;8.80;;;2.60;1.00;4.10;99030.00;;;;5011728;28;20538;-76
2021/12/04 02:55:58;;;;;;;13.33;10.03;;;2.60;1.00;4.00;99064.00;;;;5011118;28;20447;-76
2021/12/04 02:58:27;;;;;;;11.53;9.70;;;2.60;1.00;4.00;99031.00;;;;4995242;28;20445;-76
2021/12/04 03:00:56;;;;;;;10.30;9.30;;;2.50;1.00;4.10;99058.00;;;;4997087;28;20470;-76
2021/12/04 03:03:25;;;;;;;12.53;10.47;;;2.50;1.00;3.90;99022.00;;;;5011862;28;20476;-75
2021/12/04 03:05:53;;;;;;;13.23;10.37;;;2.40;1.00;3.90;99048.00;;;;5010820;28;20457;-79
2021/12/04 03:08:23;;;;;;;11.60;10.43;;;2.30;1.00;3.80;98993.00;;;;5003324;28;20454;-76
2021/12/04 03:10:54;;;;;;;13.23;11.50;;;2.30;1.00;3.90;98996.00;;;;5002319;28;20533;-75
2021/12/04 03:13:22;;;;;;;11.80;10.50;;;2.30;1.00;3.90;99028.00;;;;4993878;28;20462;-76
2021/12/04 03:15:58;;;;;;;12.60;10.47;;;2.30;1.00;3.80;99010.00;;;;5004093;28;21347;-76
2021/12/04 03:18:27;;;;;;;15.40;10.80;;;2.40;1.00;3.80;98992.00;;;;4989603;28;20458;-76
2021/12/04 03:20:58;;;;;;;13.70;11.27;;;2.30;1.00;3.90;99000.00;;;;4994098;28;20459;-77
2021/12/04 03:23:30;;;;;;;12.30;11.03;;;2.30;1.00;3.90;99009.00;;;;4991685;28;20565;-74
2021/12/04 03:26:01;;;;;;;11.43;10.33;;;2.30;1.00;4.10;99011.00;;;;4989829;28;20507;-76
2021/12/04 03:28:31;;;;;;;13.00;11.07;;;2.30;1.00;4.20;98986.00;;;;4990479;28;20549;-76
2021/12/04 03:31:04;;;;;;;15.00;11.47;;;2.30;1.00;4.20;99014.00;;;;4987591;28;20475;-75
2021/12/04 03:41:48;;;;;;;12.47;10.87;;;2.50;1.00;4.40;98954.00;;;;4993629;28;20999;-76
2021/12/04 03:44:17;;;;;;;11.83;10.63;;;2.40;1.00;4.50;98978.00;;;;4993810;28;20457;-76
2021/12/04 03:46:47;;;;;;;11.17;10.07;;;2.50;1.00;4.50;98978.00;;;;4997088;28;20553;-75
2021/12/04 03:49:16;;;;;;;11.40;10.40;;;2.50;1.00;4.50;98965.00;;;;5009959;28;20447;-77
2021/12/04 03:51:44;;;;;;;12.93;11.53;;;2.50;1.00;4.60;98970.00;;;;4994893;28;20462;-76
2021/12/04 03:54:13;;;;;;;13.10;11.80;;;2.60;1.00;4.60;98969.00;;;;4995019;28;20450;-77
2021/12/04 03:56:41;;;;;;;11.80;10.70;;;2.60;1.00;4.60;98968.00;;;;4991469;28;20463;-76
2021/12/04 03:59:11;;;;;;;13.23;11.93;;;2.60;1.00;4.30;98946.00;;;;4992878;28;20465;-76
2021/12/04 04:01:39;;;;;;;13.07;11.73;;;2.50;1.00;4.50;98944.00;;;;4990246;28;20479;-76
2021/12/04 04:04:08;;;;;;;12.20;10.90;;;2.50;1.00;4.50;98932.00;;;;4992123;28;20477;-76
2021/12/04 04:06:36;;;;;;;12.83;11.63;;;2.50;1.00;4.50;98951.00;;;;4990903;28;20936;-77
2021/12/04 04:09:04;;;;;;;12.87;11.57;;;2.50;1.00;4.50;98948.00;;;;4986109;28;20923;-77
2021/12/04 04:11:36;;;;;;;11.77;10.57;;;2.50;1.00;4.50;98956.00;;;;4995177;28;20487;-77
2021/12/04 04:14:04;;;;;;;11.97;10.87;;;2.50;1.00;4.60;98887.00;;;;4992705;28;20458;-77
2021/12/04 04:16:38;;;;;;;12.60;11.40;;;2.50;1.00;4.50;98965.00;;;;4988394;28;20462;-77
2021/12/04 04:19:08;;;;;;;12.20;11.10;;;2.50;1.00;4.60;98956.00;;;;4989513;28;20968;-76
2021/12/04 04:21:41;;;;;;;12.10;10.97;;;2.50;1.00;4.50;98908.00;;;;4992331;28;20851;-77
2021/12/04 04:24:11;;;;;;;13.67;12.33;;;2.60;1.00;4.40;98925.00;;;;4992610;28;20471;-77
2021/12/04 04:26:41;;;;;;;11.90;10.80;;;2.50;1.00;4.50;98951.00;;;;4992275;28;20451;-76
2021/12/04 04:29:10;;;;;;;11.07;10.07;;;2.50;1.00;4.60;98891.00;;;;4981303;28;21186;-77
2021/12/04 04:31:46;;;;;;;16.70;12.20;;;2.50;1.00;4.60;98962.00;;;;4985622;28;20485;-76
2021/12/04 04:34:22;;;;;;;15.60;13.80;;;2.60;1.00;4.60;98946.00;;;;4993785;28;20487;-77
2021/12/04 04:37:04;;;;;;;14.07;12.70;;;2.50;1.00;4.50;98896.00;;;;4987577;28;20807;-77
2021/12/04 04:59:14;;;;;;;14.57;13.07;;;2.40;1.00;4.50;98907.00;;;;5018536;28;20438;-79
2021/12/04 05:02:21;;;;;;;15.00;13.30;;;2.40;1.00;4.50;98924.00;;;;5010754;28;20461;-81
2021/12/04 05:13:23;;;;;;;15.03;13.37;;;2.30;1.00;4.50;98882.00;;;;5001043;28;20820;-77
2021/12/04 05:15:58;;;;;;;14.70;13.20;;;2.30;1.00;4.50;98833.00;;;;4986468;28;20462;-77
2021/12/04 05:18:37;;;;;;;14.80;13.30;;;2.30;1.00;4.50;98891.00;;;;4995164;28;20478;-78
2021/12/04 05:21:10;;;;;;;12.60;11.40;;;2.30;1.00;4.50;98832.00;;;;5013621;28;20573;-81
2021/12/04 05:23:44;;;;;;;14.93;13.53;;;2.40;1.00;4.50;98864.00;;;;5028925;28;20462;-81
2021/12/04 05:26:16;;;;;;;15.87;14.40;;;2.40;1.00;4.50;98857.00;;;;5030171;28;20438;-81
2021/12/04 05:28:46;;;;;;;15.07;13.67;;;2.50;1.00;4.50;98872.00;;;;5020867;28;20463;-76
2021/12/04 05:31:16;;;;;;;15.17;13.67;;;2.50;1.00;4.40;98866.00;;;;5007902;28;20478;-76
2021/12/04 05:33:45;;;;;;;16.10;14.50;;;2.40;1.00;4.40;98881.00;;;;4998301;28;20455;-76
2021/12/04 05:36:15;;;;;;;15.93;13.77;;;2.40;1.00;4.40;98871.00;;;;4990923;28;20452;-76
2021/12/04 05:38:44;;;;;;;14.03;12.63;;;2.50;1.00;4.50;98884.00;;;;5006877;28;20459;-77
2021/12/04 05:41:14;;;;;;;15.77;14.27;;;2.60;1.00;4.40;98845.00;;;;5008925;28;20502;-76
2021/12/04 05:43:42;;;;;;;14.80;13.50;;;2.50;1.00;4.60;98836.00;;;;4992511;28;20553;-76
2021/12/04 05:46:14;;;;;;;15.73;14.17;;;2.60;1.00;4.50;98860.00;;;;4986763;28;20458;-76
2021/12/04 05:48:47;;;;;;;16.23;14.63;;;2.70;1.00;4.50;98827.00;;;;4975449;28;20450;-77
2021/12/04 05:54:04;;;;;;;14.90;13.50;;;2.50;1.00;4.60;98851.00;;;;5004426;28;20835;-77
2021/12/04 05:56:35;;;;;;;15.10;13.70;;;2.50;1.00;4.60;98830.00;;;;4989636;28;20546;-77
2021/12/04 05:59:05;;;;;;;14.67;13.30;;;2.60;1.00;4.60;98830.00;;;;4989548;28;20981;-75
2021/12/04 06:01:34;;;;;;;14.23;12.93;;;2.60;1.00;4.70;98851.00;;;;4988832;28;20467;-76
2021/12/04 06:04:02;;;;;;;13.20;12.00;;;2.70;1.00;4.70;98853.00;;;;4996127;28;21188;-76
2021/12/04 06:06:32;;;;;;;15.17;13.67;;;2.70;1.00;4.70;98838.00;;;;5011137;28;20446;-79
2021/12/04 06:09:04;;;;;;;14.80;13.40;;;2.70;1.00;4.60;98829.00;;;;5008914;28;20489;-75
2021/12/04 06:11:34;;;;;;;17.53;14.60;;;2.70;1.00;4.70;98848.00;;;;4996999;28;20478;-77
2021/12/04 06:14:03;;;;;;;17.17;15.57;;;2.60;1.00;4.70;98832.00;;;;4995588;28;20451;-75
2021/12/04 06:16:32;;;;;;;15.90;14.40;;;2.60;1.00;4.60;98839.00;;;;4990027;28;20547;-75
2021/12/04 06:19:09;;;;;;;16.83;15.07;;;2.70;1.00;4.60;98818.00;;;;5002656;28;20444;-75
2021/12/04 06:24:25;;;;;;;16.40;14.70;;;2.60;1.00;4.60;98861.00;;;;4997946;28;20462;-75
2021/12/04 06:26:53;;;;;;;23.30;19.30;;;2.50;1.00;4.50;98826.00;;;;4993008;28;20455;-75
2021/12/04 06:29:24;;;;;;;25.53;18.63;;;2.60;1.00;4.50;98806.00;;;;5012637;28;20497;-75
2021/12/04 06:31:52;;;;;;;18.40;16.53;;;2.60;1.00;4.50;98841.00;;;;5017418;28;20481;-77
2021/12/04 06:34:20;;;;;;;20.57;17.77;;;2.60;1.00;4.50;98817.00;;;;5034069;28;20536;-77
2021/12/04 06:36:50;;;;;;;18.07;16.17;;;2.60;1.00;4.60;98845.00;;;;5019672;28;20457;-79
2021/12/04 06:39:19;;;;;;;18.33;16.43;;;2.70;1.00;4.60;98863.00;;;;5029456;28;20453;-80
2021/12/04 06:41:48;;;;;;;16.33;14.73;;;2.70;1.00;4.70;98842.00;;;;5020539;28;20501;-81
2021/12/04 06:44:16;;;;;;;18.30;16.40;;;2.70;1.00;4.70;98845.00;;;;5037146;28;20480;-81
2021/12/04 06:46:45;;;;;;;20.27;17.90;;;2.80;1.00;4.70;98809.00;;;;5021399;28;20415;-79
2021/12/04 06:49:17;;;;;;;19.53;17.23;;;2.70;1.00;4.60;98856.00;;;;5021445;28;20431;-79
2021/12/04 06:51:49;;;;;;;19.13;17.30;;;2.70;1.00;4.60;98840.00;;;;5021750;28;20486;-78
2021/12/04 06:54:21;;;;;;;17.90;16.20;;;2.70;1.00;4.60;98827.00;;;;5018576;28;20487;-75
2021/12/04 06:56:49;;;;;;;20.00;18.00;;;2.70;1.00;4.50;98833.00;;;;5001938;28;20404;-76
2021/12/04 06:59:21;;;;;;;18.83;16.80;;;2.60;1.00;4.50;98838.00;;;;4993728;28;20482;-76
2021/12/04 07:01:49;;;;;;;19.70;17.43;;;2.60;1.00;4.50;98826.00;;;;4977310;28;20815;-76
2021/12/04 07:04:19;;;;;;;17.83;16.03;;;2.60;1.00;4.60;98829.00;;;;4992065;28;20538;-75
2021/12/04 07:06:48;;;;;;;19.07;17.17;;;2.70;1.00;4.60;98820.00;;;;4990287;28;20446;-75
2021/12/04 07:09:19;;;;;;;20.53;18.07;;;2.70;1.00;4.70;98816.00;;;;4995115;28;20459;-76
2021/12/04 07:11:48;;;;;;;19.53;17.67;;;2.70;1.00;4.70;98824.00;;;;4994054;28;20569;-78
2021/12/04 07:14:16;;;;;;;19.20;17.20;;;2.70;1.00;4.70;98819.00;;;;5002677;28;20545;-78
2021/12/04 07:16:46;;;;;;;21.43;19.10;;;2.70;1.00;4.70;98829.00;;;;5009287;28;20461;-77
2021/12/04 07:19:15;;;;;;;20.60;18.40;;;2.70;1.00;4.60;98826.00;;;;5020384;28;20458;-77
2021/12/04 07:21:45;;;;;;;19.90;16.70;;;2.70;1.00;4.70;98833.00;;;;4999460;28;20476;-79
2021/12/04 07:24:14;;;;;;;24.23;19.67;;;2.80;1.00;4.70;98815.00;;;;4994420;28;21099;-77
2021/12/04 07:26:45;;;;;;;23.23;18.97;;;2.80;1.00;4.70;98780.00;;;;4997921;28;20995;-77
2021/12/04 07:29:14;;;;;;;18.60;16.70;;;2.80;1.00;4.80;98785.00;;;;4999661;28;20465;-78
2021/12/04 07:31:42;;;;;;;27.20;19.70;;;2.80;1.00;4.80;98810.00;;;;4995819;28;20573;-78
2021/12/04 07:34:11;;;;;;;18.90;17.00;;;2.80;1.00;4.70;98775.00;;;;4999254;28;20485;-78
2021/12/04 07:36:39;;;;;;;21.03;18.90;;;2.80;1.00;4.60;98783.00;;;;5004660;28;20470;-78
2021/12/04 07:39:08;;;;;;;18.93;17.00;;;2.80;1.00;4.80;98758.00;;;;5001950;28;20481;-79
2021/12/04 07:41:42;;;;;;;18.30;16.70;;;2.80;1.00;4.80;98802.00;;;;5008734;28;20479;-80
2021/12/04 07:44:12;;;;;;;21.50;18.63;;;2.90;1.00;4.80;98809.00;;;;5000611;28;20988;-78
2021/12/04 07:46:42;;;;;;;23.83;19.13;;;3.00;1.00;4.90;98761.00;;;;5004288;28;20448;-78
2021/12/04 07:49:10;;;;;;;22.03;17.07;;;3.00;1.00;5.00;98799.00;;;;4994995;28;22467;-79
2021/12/04 07:51:39;;;;;;;19.00;17.00;;;3.00;1.00;5.00;98794.00;;;;5016809;28;20565;-79
2021/12/04 07:54:08;;;;;;;24.20;19.57;;;3.20;1.00;5.00;98787.00;;;;5000985;28;20477;-79
2021/12/04 07:56:36;;;;;;;20.47;17.50;;;3.10;1.00;5.00;98773.00;;;;5000200;28;20451;-80
2021/12/04 07:59:05;;;;;;;20.07;17.67;;;3.10;1.00;5.10;98736.00;;;;5016489;28;20500;-79
2021/12/04 08:01:35;;;;;;;18.43;16.63;;;3.10;1.00;5.10;98798.00;;;;4997569;28;20560;-77
2021/12/04 08:04:04;;;;;;;25.80;19.20;;;3.10;1.00;5.20;98751.00;;;;5013053;28;20462;-78
2021/12/04 08:06:35;;;;;;;19.20;17.50;;;3.10;1.00;5.20;98689.00;;;;4998776;28;20454;-78
2021/12/04 08:09:04;;;;;;;22.37;18.30;;;3.20;1.00;5.20;98800.00;;;;4990955;28;20471;-79
2021/12/04 08:11:33;;;;;;;18.93;16.90;;;3.20;1.00;5.30;98760.00;;;;5001892;28;20584;-77
2021/12/04 08:14:02;;;;;;;18.83;16.93;;;3.30;1.00;5.30;98802.00;;;;5005251;28;20454;-79
2021/12/04 08:16:33;;;;;;;18.07;16.17;;;3.30;1.00;5.30;98796.00;;;;5005735;28;20558;-78
2021/12/04 08:19:03;;;;;;;18.33;16.50;;;3.40;1.00;5.40;98765.00;;;;4987291;28;20903;-80
2021/12/04 08:21:31;;;;;;;19.43;17.33;;;3.40;1.00;5.40;98769.00;;;;4999089;28;20475;-78
2021/12/04 08:24:00;;;;;;;20.77;17.17;;;3.40;1.00;5.50;98757.00;;;;5011929;28;20537;-79
2021/12/04 08:26:29;;;;;;;20.53;18.33;;;3.40;1.00;5.40;98737.00;;;;4998370;28;20663;-79
2021/12/04 08:28:57;;;;;;;18.60;16.80;;;3.40;1.00;5.50;98755.00;;;;4995077;28;20550;-79
2021/12/04 08:31:26;;;;;;;17.83;16.00;;;3.50;1.00;5.50;98740.00;;;;5007244;28;20480;-78
2021/12/04 08:33:56;;;;;;;19.87;17.80;;;3.50;1.00;5.50;98749.00;;;;4998419;28;20482;-79
2021/12/04 08:36:24;;;;;;;23.07;18.80;;;3.50;1.00;5.60;98765.00;;;;5001567;28;20466;-79
2021/12/04 08:38:53;;;;;;;20.87;17.30;;;3.60;1.00;5.60;98768.00;;;;4999617;28;20466;-77
2021/12/04 08:41:23;;;;;;;21.77;17.67;;;3.60;1.00;5.60;98764.00;;;;5001252;28;20482;-78
2021/12/04 08:43:53;;;;;;;20.87;17.37;;;3.60;1.00;5.60;98763.00;;;;4998959;28;20463;-78
2021/12/04 08:46:22;;;;;;;19.73;16.30;;;3.70;1.00;5.60;98768.00;;;;4992880;28;20472;-78
2021/12/04 08:48:54;;;;;;;18.20;16.33;;;3.70;1.00;5.70;98753.00;;;;5007391;28;20455;-78
2021/12/04 08:51:25;;;;;;;16.93;15.17;;;3.70;1.00;5.70;98768.00;;;;4989441;28;20479;-75
2021/12/04 08:53:54;;;;;;;16.50;14.70;;;3.80;1.00;5.70;98743.00;;;;4995094;28;20498;-76
2021/12/04 08:56:23;;;;;;;16.70;14.47;;;3.80;1.00;5.80;98698.00;;;;5006536;28;20493;-79
2021/12/04 08:58:52;;;;;;;17.43;15.50;;;3.90;1.00;5.80;98747.00;;;;4992960;28;20481;-78
2021/12/04 09:01:26;;;;;;;16.80;15.20;;;3.90;1.00;5.80;98770.00;;;;4993672;28;20488;-75
2021/12/04 09:03:59;;;;;;;17.03;15.27;;;4.00;1.00;5.80;98778.00;;;;4997779;28;20459;-76
2021/12/04 09:06:29;;;;;;;16.47;14.77;;;4.10;1.00;6.00;98755.00;;;;4992219;28;20477;-77
2021/12/04 09:08:58;;;;;;;18.10;14.80;;;4.10;1.00;6.00;98697.00;;;;4984760;28;20451;-77
2021/12/04 09:11:35;;;;;;;16.73;15.10;;;4.10;1.00;6.10;98772.00;;;;4993148;28;21040;-76
2021/12/04 09:14:04;;;;;;;15.70;14.20;;;4.20;1.00;6.10;98769.00;;;;4995922;28;20459;-77
2021/12/04 09:16:33;;;;;;;14.77;13.23;;;4.20;1.00;6.10;98779.00;;;;4995334;28;20485;-79
2021/12/04 09:19:02;;;;;;;16.63;14.73;;;4.20;1.00;6.20;98730.00;;;;4988477;28;20466;-77
2021/12/04 09:21:34;;;;;;;16.00;14.10;;;4.30;1.00;6.30;98769.00;;;;4983674;28;20581;-77
2021/12/04 09:24:08;;;;;;;20.93;18.77;;;4.40;1.00;6.40;98772.00;;;;4993459;28;20552;-76
2021/12/04 09:26:45;;;;;;;20.63;18.60;;;4.50;1.00;6.40;98771.00;;;;5001617;28;20475;-79
2021/12/04 09:29:38;;;;;;;20.07;18.17;;;4.50;1.00;6.40;98757.00;;;;4979890;28;20448;-76
2021/12/04 09:32:32;;;;;;;17.83;16.13;;;4.40;1.00;6.50;98739.00;;;;4991031;28;20474;-77
2021/12/04 09:35:18;;;;;;;20.70;15.77;;;4.40;1.00;6.40;98752.00;;;;4993662;28;20549;-78
2021/12/04 10:00:42;;;;;;;21.70;19.50;;;4.60;1.00;6.60;98672.00;;;;4986732;28;20479;-77
2021/12/04 10:12:09;;;;;;;15.17;13.57;;;4.80;1.00;6.70;98709.00;;;;5010246;28;20486;-78
2021/12/04 10:14:58;;;;;;;15.17;13.70;;;4.80;1.00;6.70;98718.00;;;;5009507;28;20461;-78
2021/12/04 10:17:50;;;;;;;17.20;15.50;;;4.80;1.00;6.70;98664.00;;;;5009984;28;20518;-79
2021/12/04 10:20:27;;;;;;;18.67;16.00;;;4.80;1.00;6.80;98656.00;;;;4999379;28;20479;-77
2021/12/04 10:23:14;;;;;;;21.30;17.07;;;4.80;1.00;6.60;98683.00;;;;5012241;28;20494;-79
2021/12/04 10:34:29;;;;;;;31.57;28.17;;;4.90;1.00;6.70;98664.00;;;;5001307;28;21292;-80
2021/12/04 10:37:06;;;;;;;32.13;28.80;;;4.90;1.00;6.80;98615.00;;;;4997192;28;20482;-80
2021/12/04 10:39:35;;;;;;;32.77;29.43;;;4.90;1.00;6.60;98635.00;;;;4997662;28;20486;-79
2021/12/04 10:42:11;;;;;;;33.07;29.77;;;4.90;1.00;6.80;98653.00;;;;5014197;28;20475;-79
2021/12/04 10:44:49;;;;;;;32.30;27.47;;;4.90;1.00;6.80;98638.00;;;;4995368;28;20466;-79
2021/12/04 10:47:23;;;;;;;27.67;24.87;;;4.90;1.00;6.70;98647.00;;;;4994566;28;20470;-79
2021/12/04 10:50:00;;;;;;;28.77;25.83;;;4.90;1.00;6.80;98645.00;;;;5002351;28;20454;-79
2021/12/04 10:52:36;;;;;;;31.60;28.50;;;5.00;1.00;6.90;98596.00;;;;5001268;28;20726;-78
2021/12/04 10:55:14;;;;;;;34.70;29.10;;;5.00;1.00;6.90;98629.00;;;;5009120;28;20454;-80
2021/12/04 11:00:42;;;;;;;40.70;36.47;;;5.10;1.00;6.80;98622.00;;;;5004017;28;20468;-79
2021/12/04 11:03:22;;;;;;;36.87;32.87;;;5.00;1.00;6.90;98622.00;;;;5002884;28;20543;-77
2021/12/04 11:26:13;;;;;;;21.33;19.13;;;5.10;1.00;6.90;98557.00;;;;4960046;28;20490;-81
2021/12/04 11:37:32;;;;;;;20.17;18.20;;;5.10;1.00;6.80;98540.00;;;;5014145;28;20526;-79
2021/12/04 11:40:23;;;;;;;19.33;17.40;;;5.10;1.00;6.80;98524.00;;;;4999906;28;20558;-78
2021/12/04 11:42:59;;;;;;;19.30;17.43;;;5.10;1.00;6.80;98526.00;;;;4999502;28;20431;-79
2021/12/04 11:45:43;;;;;;;16.97;14.90;;;5.10;1.00;6.80;98492.00;;;;5024567;28;20931;-78
2021/12/04 11:48:11;;;;;;;21.17;17.80;;;5.10;1.00;6.90;98429.00;;;;5018353;28;20458;-80
2021/12/04 11:50:50;;;;;;;21.27;19.10;;;5.10;1.00;6.90;98509.00;;;;5018979;28;20986;-78
2021/12/04 11:53:20;;;;;;;20.07;17.03;;;5.20;1.00;7.00;98491.00;;;;5007645;28;20455;-78
2021/12/04 11:55:51;;;;;;;28.13;17.20;;;5.20;1.00;7.00;98475.00;;;;4979321;28;20856;-79
2021/12/04 11:58:26;;;;;;;18.87;16.87;;;5.30;1.00;7.00;98476.00;;;;4995299;28;20510;-79
2021/12/04 12:00:59;;;;;;;21.10;17.63;;;5.30;1.00;7.00;98499.00;;;;4980676;28;20471;-78
2021/12/04 12:03:30;;;;;;;21.20;17.40;;;5.30;1.00;7.00;98483.00;;;;4984176;28;20432;-78
2021/12/04 12:06:04;;;;;;;21.93;18.80;;;5.30;1.00;7.00;98491.00;;;;4977841;28;20452;-78
2021/12/04 12:08:36;;;;;;;17.97;16.07;;;5.40;1.00;7.00;98487.00;;;;4992441;28;20502;-79
2021/12/04 12:11:08;;;;;;;22.93;16.10;;;5.30;1.00;7.10;98481.00;;;;4996575;28;20486;-77
2021/12/04 12:13:41;;;;;;;20.10;16.87;;;5.30;1.00;7.00;98479.00;;;;4993005;28;20459;-76
2021/12/04 12:16:15;;;;;;;20.13;17.90;;;5.30;1.00;7.10;98299.00;;;;4985688;28;20542;-77
2021/12/04 12:18:54;;;;;;;20.93;18.07;;;5.30;1.00;7.10;98449.00;;;;4994314;28;20497;-77
2021/12/04 12:21:31;;;;;;;21.13;17.23;;;5.40;1.00;7.20;98449.00;;;;4996727;28;20470;-75
2021/12/04 12:27:21;;;;;;;20.27;18.17;;;5.40;1.00;7.10;98420.00;;;;4979283;28;20475;-76
2021/12/04 12:33:05;;;;;;;21.00;17.37;;;5.50;1.00;7.30;98432.00;;;;4982934;28;20465;-79
2021/12/04 12:38:47;;;;;;;21.70;18.70;;;5.50;1.00;7.30;98361.00;;;;4994725;28;20494;-76
2021/12/04 12:41:29;;;;;;;21.87;16.60;;;5.50;1.00;7.30;98420.00;;;;4993918;28;20503;-77
2021/12/04 12:44:10;;;;;;;19.80;17.70;;;5.60;1.00;7.20;98450.00;;;;5004070;28;20554;-76
2021/12/04 12:46:43;;;;;;;18.80;17.00;;;5.60;1.00;7.20;98446.00;;;;4991758;28;20982;-76
2021/12/04 12:49:27;;;;;;;19.63;17.40;;;5.50;1.00;7.20;98444.00;;;;4982887;28;20451;-78
2021/12/04 12:52:01;;;;;;;19.80;17.67;;;5.60;1.00;7.30;98424.00;;;;5008427;28;20495;-76
2021/12/04 12:54:35;;;;;;;19.20;17.17;;;5.50;1.00;7.30;98378.00;;;;4991846;28;20542;-75
2021/12/04 12:57:10;;;;;;;18.17;16.27;;;5.60;1.00;7.20;98410.00;;;;5011565;28;20843;-76
2021/12/04 12:59:46;;;;;;;18.33;16.50;;;5.60;1.00;7.20;98375.00;;;;4994186;28;20478;-76
2021/12/04 13:13:38;;;;;;;18.90;17.00;;;5.60;1.00;7.30;98381.00;;;;4994732;28;20455;-77
2021/12/04 13:16:17;;;;;;;18.10;16.20;;;5.60;1.00;7.30;98370.00;;;;4980620;28;20530;-77
2021/12/04 13:18:55;;;;;;;16.90;15.10;;;5.70;1.00;7.40;98375.00;;;;5009017;28;20837;-77
2021/12/04 13:21:25;;;;;;;18.03;16.23;;;5.70;1.00;7.30;98381.00;;;;4986687;28;20526;-76
2021/12/04 13:23:56;;;;;;;20.60;18.40;;;5.70;1.00;7.20;98372.00;;;;4990441;28;20493;-76
2021/12/04 13:26:30;;;;;;;21.63;18.87;;;5.60;1.00;7.10;98376.00;;;;4992349;28;20443;-75
2021/12/04 13:29:00;;;;;;;21.80;18.43;;;5.60;1.00;7.10;98380.00;;;;4981474;28;20513;-76
2021/12/04 13:31:29;;;;;;;21.53;18.03;;;5.60;1.00;6.80;98360.00;;;;4984670;28;20584;-75
2021/12/04 13:33:58;;;;;;;18.50;16.23;;;5.60;1.00;7.10;98384.00;;;;5002863;28;20527;-77
2021/12/04 13:36:30;;;;;;;17.70;15.50;;;5.60;1.00;7.10;98367.00;;;;4990889;28;20456;-78
2021/12/04 13:39:02;;;;;;;17.60;15.77;;;5.60;1.00;7.10;98376.00;;;;5014969;28;20429;-80
2021/12/04 13:41:34;;;;;;;16.70;15.00;;;5.70;1.00;7.20;98344.00;;;;5003368;28;20485;-79
2021/12/04 13:44:07;;;;;;;19.27;17.20;;;5.60;1.00;7.20;98348.00;;;;5014530;28;20449;-79
2021/12/04 13:46:43;;;;;;;19.87;17.63;;;5.60;1.00;7.20;98278.00;;;;4996073;28;20460;-76
2021/12/04 13:49:14;;;;;;;20.97;18.40;;;5.70;1.00;7.10;98363.00;;;;5022056;28;20442;-77
2021/12/04 13:51:43;;;;;;;20.53;17.73;;;5.60;1.00;7.10;98342.00;;;;4997444;28;20481;-78